Search for airport 
image banner adimage banner adimage banner ad
image banner ad

KIIB - Independence Muni

Located in Independence, United States

ICAO - IIB, IATA -

Data provided by Airmate  

General information

Coordinates: N42°27'25" W91°56'52"
Elevation is 979 feet MSL.
Magnetic variation is 00° East
View others Airports in Iowa

Operational data

Special qualification required
Current time UTC:
Current local time:
Weather
METAR: KIIB 150935Z AUTO 33003KT 10SM CLR 12/11 A3009 RMK AO2 T01230105
View NOTAMs / SUP AIP / TFR affecting this airport [VIEW]
Communications frequencies: [VIEW]

Runways:

RWY identifierQFULength (ft)Width (ft)SurfaceLDA (ft)
18179°5500100CONC
36359°5500100CONC

Airport contact information

Address: Independence United States

Other aviation service providers

Flight schools

Walter Aviation, Inc.

Walter Aviation, Inc.

Satellite view of KIIB